Time;durP1;ratioP1;P1;durP2;ratioP2;P2;SDS_P1;SDS_P2;PMS_P1;PMS_P2;Temp;Humidity;BMP_temperature;BMP_pressure;BME280_temperature;BME280_humidity;BME280_pressure;Samples;Min_cycle;Max_cycle;Signal;HPM_P1;HPM_P2
2022/01/09 00:02:19;;;;;;;11.12;8.35;;;;;;;-0.57;92.60;97302.55;1847433;77;21175;-59
2022/01/09 00:04:45;;;;;;;11.25;8.60;;;;;;;-0.58;92.49;97290.41;1847338;77;20957;-59
2022/01/09 00:07:12;;;;;;;12.15;8.43;;;;;;;-0.59;92.48;97292.78;1847423;77;20891;-61
2022/01/09 00:09:41;;;;;;;14.15;9.53;;;;;;;-0.59;92.57;97294.09;1847426;77;21367;-63
2022/01/09 00:12:08;;;;;;;12.25;9.63;;;;;;;-0.57;92.57;97292.02;1847335;77;20911;-61
2022/01/09 00:14:35;;;;;;;11.68;8.58;;;;;;;-0.57;92.49;97286.77;1847267;77;21886;-60
2022/01/09 00:17:02;;;;;;;11.30;8.78;;;;;;;-0.54;92.42;97281.55;1847550;77;20847;-62
2022/01/09 00:19:29;;;;;;;11.30;9.13;;;;;;;-0.54;92.40;97285.49;1847354;77;20864;-62
2022/01/09 00:21:56;;;;;;;11.70;9.10;;;;;;;-0.58;92.34;97277.77;1847376;77;20907;-61
2022/01/09 00:24:23;;;;;;;12.33;9.15;;;;;;;-0.59;92.35;97277.00;1847521;77;21390;-62
2022/01/09 00:26:49;;;;;;;11.05;8.33;;;;;;;-0.59;92.37;97274.37;1847418;77;21103;-59
2022/01/09 00:29:16;;;;;;;12.50;9.50;;;;;;;-0.57;92.40;97269.66;1847333;77;20950;-58
2022/01/09 00:31:43;;;;;;;14.53;9.78;;;;;;;-0.57;92.31;97264.41;1847396;77;20935;-59
2022/01/09 00:34:09;;;;;;;10.78;8.73;;;;;;;-0.57;92.26;97267.03;1847496;77;20947;-61
2022/01/09 00:36:36;;;;;;;12.18;9.35;;;;;;;-0.59;92.22;97268.30;1847442;77;20911;-63
2022/01/09 00:39:03;;;;;;;11.78;8.85;;;;;;;-0.60;92.23;97256.97;1847385;77;21111;-63
2022/01/09 00:41:31;;;;;;;12.73;8.90;;;;;;;-0.62;92.19;97255.10;1847440;77;21390;-58
2022/01/09 00:43:58;;;;;;;14.35;9.50;;;;;;;-0.63;92.22;97250.87;1847397;77;20942;-61
2022/01/09 00:46:24;;;;;;;13.72;9.98;;;;;;;-0.62;92.15;97249.84;1847267;77;20907;-62
2022/01/09 00:48:51;;;;;;;12.75;8.90;;;;;;;-0.62;92.10;97249.84;1847438;77;20971;-63
2022/01/09 00:51:18;;;;;;;12.43;9.58;;;;;;;-0.64;92.08;97244.03;1847402;77;21071;-59
2022/01/09 00:53:45;;;;;;;13.28;10.28;;;;;;;-0.63;92.17;97238.22;1847302;77;20938;-59
2022/01/09 00:56:12;;;;;;;14.00;10.15;;;;;;;-0.62;92.12;97244.58;1841149;77;21399;-64
2022/01/09 00:58:39;;;;;;;15.03;10.05;;;;;;;-0.61;92.10;97236.95;1836283;78;21379;-63
2022/01/09 01:01:05;;;;;;;12.40;9.63;;;;;;;-0.63;92.01;97228.50;1836217;78;20911;-63
2022/01/09 01:03:32;;;;;;;13.05;8.80;;;;;;;-0.66;92.11;97222.43;1836049;78;21102;-63
2022/01/09 01:05:59;;;;;;;12.75;8.80;;;;;;;-0.62;92.14;97218.79;1836295;78;20876;-58
2022/01/09 01:08:26;;;;;;;12.90;8.90;;;;;;;-0.60;92.04;97209.63;1836179;78;20868;-61
2022/01/09 01:10:53;;;;;;;12.43;9.28;;;;;;;-0.60;91.92;97209.63;1836163;78;20832;-59
2022/01/09 01:13:19;;;;;;;13.15;8.40;;;;;;;-0.64;91.89;97201.94;1836203;78;20820;-61
2022/01/09 01:15:47;;;;;;;12.98;9.15;;;;;;;-0.66;91.80;97193.50;1836273;78;21829;-64
2022/01/09 01:18:13;;;;;;;12.47;8.63;;;;;;;-0.69;91.74;97192.65;1836101;78;20972;-63
2022/01/09 01:20:41;;;;;;;12.63;8.58;;;;;;;-0.71;91.70;97194.73;1836123;78;20902;-62
2022/01/09 01:23:08;;;;;;;10.78;7.92;;;;;;;-0.75;91.70;97187.01;1836115;78;20864;-59
2022/01/09 01:25:36;;;;;;;9.95;7.72;;;;;;;-0.73;91.76;97187.59;1836275;78;20913;-61
2022/01/09 01:28:04;;;;;;;11.73;8.23;;;;;;;-0.72;91.73;97186.54;1836133;78;21107;-61
2022/01/09 01:30:30;;;;;;;11.05;7.95;;;;;;;-0.71;91.70;97186.84;1836258;78;21390;-59
2022/01/09 01:32:57;;;;;;;10.82;8.10;;;;;;;-0.70;91.69;97183.16;1836169;78;20946;-60
2022/01/09 01:35:24;;;;;;;8.73;7.05;;;;;;;-0.69;91.59;97179.50;1836508;78;20931;-58
2022/01/09 01:37:51;;;;;;;11.33;7.62;;;;;;;-0.69;91.61;97179.50;1836176;78;20978;-59
2022/01/09 01:40:18;;;;;;;12.10;8.35;;;;;;;-0.68;91.57;97173.19;1836153;78;21102;-62
2022/01/09 01:42:46;;;;;;;9.40;7.50;;;;;;;-0.66;91.56;97172.97;1835925;78;20947;-61
2022/01/09 01:45:13;;;;;;;9.65;7.25;;;;;;;-0.65;91.47;97164.83;1836156;78;20871;-58
2022/01/09 01:47:40;;;;;;;9.45;7.00;;;;;;;-0.64;91.34;97166.44;1836122;78;21280;-63
2022/01/09 01:50:08;;;;;;;9.75;7.22;;;;;;;-0.66;91.31;97159.31;1836160;78;20879;-63
2022/01/09 01:52:43;;;;;;;11.57;7.85;;;;;;;-0.65;91.40;97158.25;1836116;78;21722;-59
2022/01/09 01:55:09;;;;;;;9.70;7.05;;;;;;;-0.62;91.32;97153.84;1834433;78;20955;-63
2022/01/09 01:57:42;;;;;;;8.03;6.17;;;;;;;-0.60;91.26;97154.39;1836044;78;20908;-63
2022/01/09 02:00:13;;;;;;;9.48;6.62;;;;;;;-0.57;91.13;97156.55;1836320;78;20828;-62
2022/01/09 02:02:40;;;;;;;9.55;6.92;;;;;;;-0.58;91.11;97147.05;1836080;78;20902;-58
2022/01/09 02:05:08;;;;;;;10.32;8.05;;;;;;;-0.58;90.93;97150.20;1836111;78;21110;-63
2022/01/09 02:07:38;;;;;;;9.83;7.65;;;;;;;-0.64;90.83;97146.71;1836363;78;21410;-58
2022/01/09 02:10:08;;;;;;;9.85;7.70;;;;;;;-0.68;90.87;97145.57;1836210;78;20930;-61
2022/01/09 02:12:40;;;;;;;10.40;7.47;;;;;;;-0.68;90.90;97139.00;1836089;78;20915;-58
2022/01/09 02:15:37;;;;;;;10.72;7.10;;;;;;;-0.68;90.87;97144.26;1836178;78;20907;-62
2022/01/09 02:18:06;;;;;;;;;;;;;;;-0.67;90.89;97130.09;1839082;78;21117;-58
2022/01/09 02:20:34;;;;;;;11.30;6.78;;;;;;;-0.67;90.80;97128.77;1835198;78;20179;-62
2022/01/09 02:23:01;;;;;;;10.18;7.05;;;;;;;-0.69;90.76;97128.22;1836303;78;21365;-62
2022/01/09 02:25:28;;;;;;;8.23;6.58;;;;;;;-0.73;90.77;97122.63;1836413;78;20908;-64
2022/01/09 02:27:54;;;;;;;8.18;6.25;;;;;;;-0.73;90.74;97121.31;1836148;78;20954;-57
2022/01/09 02:30:21;;;;;;;8.80;6.45;;;;;;;-0.75;90.69;97117.32;1836148;78;21772;-59
2022/01/09 02:32:48;;;;;;;8.40;6.67;;;;;;;-0.75;90.71;97109.44;1836073;78;20942;-57
2022/01/09 02:35:14;;;;;;;8.68;6.70;;;;;;;-0.74;90.65;97107.90;1836204;78;20942;-57
2022/01/09 02:37:41;;;;;;;9.23;7.12;;;;;;;-0.76;90.61;97111.80;1836114;78;20911;-59
2022/01/09 02:40:09;;;;;;;8.88;6.58;;;;;;;-0.79;90.61;97101.75;1836112;78;20879;-58
2022/01/09 02:42:35;;;;;;;8.78;6.58;;;;;;;-0.82;90.57;97096.97;1836238;78;21461;-63
2022/01/09 02:45:03;;;;;;;8.03;5.92;;;;;;;-0.84;90.60;97096.41;1836405;78;20852;-62
2022/01/09 02:47:33;;;;;;;9.20;6.25;;;;;;;-0.86;90.67;97086.66;1836403;78;21213;-62
2022/01/09 02:50:11;;;;;;;10.60;6.47;;;;;;;-0.85;90.73;97086.41;1836273;78;20906;-62
2022/01/09 02:52:35;;;;;;;8.83;6.25;;;;;;;-0.84;90.72;97080.13;1834827;78;20860;-58
2022/01/09 02:55:11;;;;;;;8.13;6.42;;;;;;;-0.82;90.69;97079.36;1836210;78;21114;-62
2022/01/09 02:57:33;;;;;;;8.13;5.92;;;;;;;-0.84;90.56;97074.06;1835320;77;20926;-62
2022/01/09 03:00:00;;;;;;;8.78;6.47;;;;;;;-0.90;90.61;97066.64;1836277;78;20899;-61
2022/01/09 03:02:26;;;;;;;8.98;6.10;;;;;;;-0.94;90.60;97068.64;1836263;78;21517;-58
2022/01/09 03:04:53;;;;;;;8.83;6.37;;;;;;;-0.97;90.62;97062.05;1836280;78;20856;-58
2022/01/09 03:07:20;;;;;;;8.30;6.28;;;;;;;-0.98;90.69;97053.88;1836259;78;21094;-63
2022/01/09 03:09:47;;;;;;;9.33;6.60;;;;;;;-0.98;90.73;97053.08;1836528;78;21414;-62
2022/01/09 03:12:15;;;;;;;7.67;6.12;;;;;;;-0.96;90.72;97049.17;1836277;78;21005;-63
2022/01/09 03:14:42;;;;;;;10.30;7.20;;;;;;;-0.95;90.62;97048.15;1836249;78;20915;-58
2022/01/09 03:17:09;;;;;;;10.28;7.25;;;;;;;-0.96;90.63;97052.31;1836283;78;20840;-60
2022/01/09 03:19:36;;;;;;;10.50;6.70;;;;;;;-0.96;90.62;97049.69;1836464;78;21462;-58
2022/01/09 03:22:04;;;;;;;9.33;6.85;;;;;;;-0.99;90.48;97050.96;1836210;78;20883;-60
2022/01/09 03:24:31;;;;;;;10.10;6.72;;;;;;;-1.02;90.52;97052.77;1836332;78;21418;-59
2022/01/09 03:26:58;;;;;;;10.23;7.10;;;;;;;-1.03;90.59;97049.85;1836224;78;20938;-62
2022/01/09 03:29:25;;;;;;;9.03;6.30;;;;;;;-1.04;90.58;97044.84;1836559;78;20924;-60
2022/01/09 03:31:51;;;;;;;17.62;11.97;;;;;;;-1.03;90.66;97039.85;1836234;78;21113;-62
2022/01/09 03:34:18;;;;;;;11.80;8.48;;;;;;;-1.02;90.64;97040.95;1836365;78;21386;-59
2022/01/09 03:36:45;;;;;;;11.38;7.70;;;;;;;-1.00;90.59;97040.70;1836242;78;20951;-60
2022/01/09 03:39:11;;;;;;;9.28;6.95;;;;;;;-1.01;90.60;97031.20;1836225;78;20853;-62
2022/01/09 03:41:38;;;;;;;9.15;7.10;;;;;;;-0.98;90.66;97032.05;1836281;78;20966;-64
2022/01/09 03:44:05;;;;;;;15.78;10.13;;;;;;;-0.97;90.65;97037.59;1836282;78;21108;-63
2022/01/09 03:46:31;;;;;;;14.45;9.33;;;;;;;-0.96;90.58;97026.03;1836155;78;20824;-58
2022/01/09 03:48:58;;;;;;;9.90;7.40;;;;;;;-0.94;90.61;97021.32;1836143;78;20900;-60
2022/01/09 03:51:31;;;;;;;8.38;6.35;;;;;;;-0.93;90.49;97023.73;1836218;78;20915;-60
2022/01/09 03:53:53;;;;;;;8.90;6.70;;;;;;;-0.94;90.46;97020.81;1835161;78;20875;-59
2022/01/09 03:56:20;;;;;;;9.70;7.97;;;;;;;-0.93;90.50;97016.36;1836044;77;21092;-57
2022/01/09 03:58:46;;;;;;;9.70;7.20;;;;;;;-0.92;90.45;97016.65;1835799;78;21410;-58
2022/01/09 04:01:13;;;;;;;9.63;6.80;;;;;;;-0.92;90.41;97017.96;1835653;78;20879;-59
2022/01/09 04:03:40;;;;;;;14.47;10.72;;;;;;;-0.95;90.36;97010.03;1835598;78;20852;-61
2022/01/09 04:06:06;;;;;;;13.65;9.13;;;;;;;-0.98;90.31;97011.82;1835666;78;20966;-62
2022/01/09 04:08:34;;;;;;;8.33;6.15;;;;;;;-1.01;90.36;97002.29;1835829;78;21865;-57
2022/01/09 04:11:02;;;;;;;7.90;5.75;;;;;;;-1.02;90.37;97004.15;1835586;78;20828;-59
2022/01/09 04:13:31;;;;;;;8.58;6.12;;;;;;;-1.02;90.29;96991.52;1835325;77;20864;-59
2022/01/09 04:15:59;;;;;;;13.48;9.83;;;;;;;-1.07;90.32;96989.61;1835733;78;21329;-63
2022/01/09 04:18:25;;;;;;;18.80;13.20;;;;;;;-1.07;90.35;96992.75;1835648;78;20919;-61
2022/01/09 04:20:52;;;;;;;15.38;9.75;;;;;;;-1.12;90.29;96994.79;1835642;78;21113;-61
2022/01/09 04:23:19;;;;;;;10.90;7.50;;;;;;;-1.17;90.33;96993.39;1835540;78;21263;-63
2022/01/09 04:25:46;;;;;;;7.40;6.15;;;;;;;-1.23;90.42;96990.94;1835726;78;20966;-59
2022/01/09 04:28:14;;;;;;;7.58;6.12;;;;;;;-1.23;90.51;96983.05;1835821;78;21348;-63
2022/01/09 04:30:40;;;;;;;9.48;6.75;;;;;;;-1.23;90.55;96981.23;1835654;78;20883;-63
2022/01/09 04:33:09;;;;;;;12.60;8.73;;;;;;;-1.21;90.61;96977.03;1835634;78;21208;-62
2022/01/09 04:35:36;;;;;;;20.37;13.28;;;;;;;-1.18;90.47;96982.63;1835528;78;20864;-57
2022/01/09 04:38:04;;;;;;;15.50;9.83;;;;;;;-1.19;90.50;96986.27;1835585;78;20911;-61
2022/01/09 04:40:31;;;;;;;9.08;7.10;;;;;;;-1.20;90.51;96985.20;1835600;78;20907;-59
2022/01/09 04:43:00;;;;;;;9.78;6.47;;;;;;;-1.20;90.59;96987.84;1836002;78;20954;-58
2022/01/09 04:45:28;;;;;;;10.20;6.75;;;;;;;-1.18;90.55;96988.39;1835363;77;21113;-61
2022/01/09 04:48:00;;;;;;;11.30;8.78;;;;;;;-1.19;90.57;96990.22;1835531;78;20943;-58
2022/01/09 04:50:27;;;;;;;23.98;15.40;;;;;;;-1.19;90.61;96981.02;1835497;78;21425;-61
2022/01/09 04:53:00;;;;;;;25.97;17.37;;;;;;;-1.18;90.61;96983.94;1835465;78;21328;-64
2022/01/09 04:55:25;;;;;;;13.95;8.15;;;;;;;-1.15;90.69;96985.27;1835353;77;20903;-60
2022/01/09 04:57:51;;;;;;;10.75;8.28;;;;;;;-1.10;90.73;96991.91;1837746;77;21099;-62
2022/01/09 05:00:18;;;;;;;10.48;7.45;;;;;;;-1.06;90.58;96991.73;1838710;78;20891;-64
2022/01/09 05:02:45;;;;;;;10.95;7.90;;;;;;;-1.10;90.64;96987.97;1838522;78;20946;-60
2022/01/09 05:05:12;;;;;;;17.45;10.72;;;;;;;-1.10;90.69;96987.97;1838584;78;21387;-58
2022/01/09 05:07:39;;;;;;;16.60;10.13;;;;;;;-1.10;90.73;96990.59;1838550;78;20848;-58
2022/01/09 05:10:09;;;;;;;13.50;8.60;;;;;;;-1.10;90.77;96995.85;1838392;78;20959;-63
2022/01/09 05:12:35;;;;;;;13.55;8.70;;;;;;;-1.08;90.85;96993.27;1838328;78;21473;-60
2022/01/09 05:15:03;;;;;;;11.05;7.60;;;;;;;-1.03;90.86;96997.80;1838720;78;20816;-61
2022/01/09 05:17:30;;;;;;;28.67;17.20;;;;;;;-1.01;90.82;96995.20;1838505;78;20903;-63
2022/01/09 05:19:57;;;;;;;38.05;22.10;;;;;;;-1.01;90.82;96993.89;1838545;77;20912;-63
2022/01/09 05:22:28;;;;;;;16.48;9.65;;;;;;;-1.03;90.85;96986.77;1838564;78;21061;-61
2022/01/09 05:24:57;;;;;;;15.28;9.85;;;;;;;-1.02;90.93;96982.31;1837305;78;20911;-58
2022/01/09 05:27:24;;;;;;;10.18;7.15;;;;;;;-1.03;90.88;96979.40;1838461;78;21263;-62
2022/01/09 05:29:52;;;;;;;9.80;7.42;;;;;;;-1.00;91.00;96974.98;1838433;78;21295;-59
2022/01/09 05:32:19;;;;;;;11.00;7.45;;;;;;;-0.97;90.99;96966.63;1838621;78;20883;-58
2022/01/09 05:34:46;;;;;;;10.10;7.67;;;;;;;-0.95;91.00;96961.92;1838609;78;21784;-61
2022/01/09 05:37:13;;;;;;;21.23;15.10;;;;;;;-0.93;91.02;96962.47;1838444;78;20836;-58
2022/01/09 05:39:40;;;;;;;34.50;21.68;;;;;;;-0.91;90.99;96963.02;1838490;78;20840;-61
2022/01/09 05:42:08;;;;;;;30.20;17.45;;;;;;;-0.89;91.03;96969.63;1838482;78;20907;-62
2022/01/09 05:44:36;;;;;;;19.98;13.13;;;;;;;-0.89;90.98;96963.56;1838586;78;21481;-63
2022/01/09 05:47:04;;;;;;;13.03;9.15;;;;;;;-0.88;91.08;96959.91;1838511;78;21153;-63
2022/01/09 05:49:30;;;;;;;10.68;7.40;;;;;;;-0.88;91.04;96961.22;1838524;78;21383;-60
2022/01/09 05:51:57;;;;;;;11.12;7.92;;;;;;;-0.86;91.04;96965.72;1838496;78;20923;-58
2022/01/09 05:54:24;;;;;;;10.03;7.65;;;;;;;-0.86;91.10;96960.45;1838461;78;20955;-60
2022/01/09 06:02:01;;;;;;;31.07;16.95;;;;;;;-0.77;91.10;96974.78;1836273;78;20903;-60
2022/01/09 06:04:28;;;;;;;15.40;9.95;;;;;;;-0.77;91.12;96969.52;1836126;78;20899;-62
2022/01/09 06:06:55;;;;;;;12.33;8.30;;;;;;;-0.76;91.06;96971.92;1836306;78;20955;-59
2022/01/09 06:09:22;;;;;;;11.85;8.40;;;;;;;-0.76;91.05;96973.75;1836461;78;20852;-58
2022/01/09 06:11:49;;;;;;;11.97;7.90;;;;;;;-0.76;91.05;96967.18;1836311;78;21804;-59
2022/01/09 06:14:15;;;;;;;9.60;7.42;;;;;;;-0.74;91.09;96965.09;1836270;78;20962;-61
2022/01/09 06:16:43;;;;;;;9.65;7.92;;;;;;;-0.75;91.01;96955.09;1836146;78;20895;-58
2022/01/09 06:19:10;;;;;;;22.98;15.93;;;;;;;-0.75;91.13;96966.13;1836549;78;20895;-59
2022/01/09 06:21:37;;;;;;;25.35;17.23;;;;;;;-0.73;91.07;96961.44;1836431;78;20966;-58
2022/01/09 06:24:04;;;;;;;13.95;9.80;;;;;;;-0.76;91.02;96954.03;1836291;78;21097;-59
2022/01/09 06:26:33;;;;;;;14.10;10.45;;;;;;;-0.80;91.06;96951.63;1836120;78;20853;-59
2022/01/09 06:28:59;;;;;;;13.72;9.63;;;;;;;-0.81;91.13;96963.16;1836597;78;20856;-60
2022/01/09 06:31:26;;;;;;;16.25;10.72;;;;;;;-0.81;91.22;96961.84;1836475;78;21418;-60
2022/01/09 06:33:52;;;;;;;16.12;10.60;;;;;;;-0.77;91.31;96960.31;1836326;78;20832;-63
2022/01/09 06:36:19;;;;;;;16.90;11.65;;;;;;;-0.73;91.35;96961.44;1836373;78;21110;-63
2022/01/09 06:38:45;;;;;;;26.00;16.02;;;;;;;-0.66;91.25;96961.26;1836239;78;20891;-64
2022/01/09 06:41:12;;;;;;;29.12;17.62;;;;;;;-0.64;91.17;96956.03;1836279;78;20864;-62
2022/01/09 06:43:40;;;;;;;30.32;17.05;;;;;;;-0.58;91.15;96962.94;1836283;78;20875;-64
2022/01/09 06:46:07;;;;;;;22.00;13.55;;;;;;;-0.55;91.11;96965.09;1836282;78;20880;-60
2022/01/09 06:48:33;;;;;;;22.05;15.75;;;;;;;-0.53;91.03;96972.20;1836290;78;21716;-64
2022/01/09 06:51:00;;;;;;;19.77;12.05;;;;;;;-0.54;90.96;96965.89;1836218;78;20875;-64
2022/01/09 06:53:27;;;;;;;19.92;11.88;;;;;;;-0.54;90.94;96967.97;1836261;78;20903;-65
2022/01/09 06:55:54;;;;;;;17.35;10.80;;;;;;;-0.50;90.81;96964.34;1836439;78;21001;-60
2022/01/09 06:58:21;;;;;;;28.17;20.08;;;;;;;-0.52;90.85;96957.23;1836263;77;20868;-60
2022/01/09 07:00:48;;;;;;;20.92;14.20;;;;;;;-0.47;90.96;96960.70;1836447;78;21473;-62
2022/01/09 07:03:15;;;;;;;22.42;16.42;;;;;;;-0.42;90.83;96958.64;1836218;78;21513;-64
2022/01/09 07:05:42;;;;;;;29.20;19.77;;;;;;;-0.37;90.78;96955.56;1836446;78;20863;-63
2022/01/09 07:08:09;;;;;;;22.52;14.23;;;;;;;-0.30;90.71;96956.69;1836269;78;20903;-62
2022/01/09 07:10:36;;;;;;;21.97;15.88;;;;;;;-0.28;90.55;96946.70;1836168;78;20974;-63
2022/01/09 07:13:04;;;;;;;21.23;14.47;;;;;;;-0.27;90.43;96953.05;1836279;78;21061;-65
2022/01/09 07:15:30;;;;;;;20.95;14.20;;;;;;;-0.29;90.38;96953.02;1836185;78;20816;-60
2022/01/09 07:17:57;;;;;;;18.65;12.93;;;;;;;-0.31;90.37;96937.49;1836368;78;20899;-62
2022/01/09 07:20:24;;;;;;;18.90;12.98;;;;;;;-0.28;90.39;96935.66;1836206;78;21030;-64
2022/01/09 07:22:51;;;;;;;21.65;15.03;;;;;;;-0.27;90.38;96941.21;1836185;78;20864;-62
2022/01/09 07:25:18;;;;;;;23.18;15.35;;;;;;;-0.24;90.32;96938.09;1836420;78;21566;-62
2022/01/09 07:27:45;;;;;;;21.27;15.40;;;;;;;-0.22;90.29;96936.01;1836170;78;20969;-59
2022/01/09 07:30:12;;;;;;;36.28;23.92;;;;;;;-0.19;90.25;96932.86;1836231;78;20859;-59
2022/01/09 07:32:40;;;;;;;31.70;20.25;;;;;;;-0.17;90.18;96929.48;1836230;78;20872;-64
2022/01/09 07:35:08;;;;;;;33.53;21.80;;;;;;;-0.13;90.18;96929.77;1836282;78;20904;-61
2022/01/09 07:37:35;;;;;;;23.45;15.70;;;;;;;-0.11;90.15;96914.00;1836111;78;21913;-63
2022/01/09 07:40:03;;;;;;;20.20;13.32;;;;;;;-0.07;90.11;96904.56;1836195;78;20820;-60
2022/01/09 07:42:30;;;;;;;22.13;14.30;;;;;;;-0.03;90.06;96913.57;1836194;78;20832;-63
2022/01/09 07:44:57;;;;;;;27.95;16.93;;;;;;;0.00;89.86;96918.86;1836170;78;20947;-58
2022/01/09 07:47:24;;;;;;;29.90;16.37;;;;;;;0.00;89.85;96918.32;1836482;78;21343;-64
2022/01/09 07:49:50;;;;;;;28.52;17.15;;;;;;;0.03;89.77;96920.98;1836228;78;21096;-65
2022/01/09 07:52:17;;;;;;;39.03;23.57;;;;;;;0.05;89.70;96925.47;1836252;78;20950;-62
2022/01/09 07:54:43;;;;;;;34.40;20.90;;;;;;;0.06;89.67;96924.44;1836245;78;21375;-62
2022/01/09 07:57:10;;;;;;;32.13;19.27;;;;;;;0.10;89.66;96931.30;1836348;78;20891;-63
2022/01/09 07:59:37;;;;;;;30.17;17.95;;;;;;;0.12;89.59;96922.11;1836489;78;21401;-63
2022/01/09 08:02:05;;;;;;;19.37;12.53;;;;;;;0.13;89.54;96926.86;1836234;78;21105;-60
2022/01/09 08:04:32;;;;;;;16.82;12.70;;;;;;;0.15;89.44;96916.88;1836310;78;20883;-63
2022/01/09 08:06:59;;;;;;;16.93;12.45;;;;;;;0.15;89.32;96915.55;1836167;78;20868;-61
2022/01/09 08:09:26;;;;;;;20.37;13.48;;;;;;;0.12;89.30;96912.89;1836413;78;21374;-59
2022/01/09 08:11:53;;;;;;;18.92;12.55;;;;;;;0.12;89.29;96906.86;1836252;78;20863;-61
2022/01/09 08:14:21;;;;;;;23.85;16.05;;;;;;;0.11;89.22;96911.84;1836163;78;20824;-58
2022/01/09 08:16:48;;;;;;;26.42;16.97;;;;;;;0.12;89.25;96914.76;1836041;78;20903;-63
2022/01/09 08:19:15;;;;;;;29.45;17.90;;;;;;;0.15;89.25;96908.97;1836208;78;21382;-64
2022/01/09 08:21:42;;;;;;;24.72;18.40;;;;;;;0.16;89.25;96918.47;1836355;78;20859;-60
2022/01/09 08:24:10;;;;;;;27.30;17.95;;;;;;;0.18;89.22;96919.81;1836118;78;20950;-59
2022/01/09 08:26:37;;;;;;;21.05;15.40;;;;;;;0.22;89.32;96916.14;1836073;78;21031;-63
2022/01/09 08:29:04;;;;;;;18.25;12.28;;;;;;;0.27;89.32;96913.05;1836134;78;21512;-63
2022/01/09 08:31:31;;;;;;;16.85;12.03;;;;;;;0.33;89.14;96910.70;1836206;78;20896;-61
2022/01/09 08:33:58;;;;;;;19.70;12.53;;;;;;;0.37;88.94;96907.06;1836180;78;20896;-63
2022/01/09 08:36:25;;;;;;;15.28;11.48;;;;;;;0.37;88.88;96896.53;1836196;78;20903;-60
2022/01/09 08:38:53;;;;;;;21.07;17.17;;;;;;;0.43;88.83;96887.09;1836298;78;21108;-58
2022/01/09 08:41:20;;;;;;;41.53;29.57;;;;;;;0.49;88.73;96881.34;1836362;78;20867;-63
2022/01/09 08:43:46;;;;;;;45.15;32.58;;;;;;;0.53;88.64;96876.63;1836385;78;21415;-58
2022/01/09 08:46:15;;;;;;;73.92;43.75;;;;;;;0.56;88.69;96864.27;1836152;78;20840;-62
2022/01/09 08:48:42;;;;;;;63.15;42.27;;;;;;;0.61;88.53;96871.42;1836206;78;20863;-61
2022/01/09 08:51:08;;;;;;;38.17;27.65;;;;;;;0.63;88.49;96877.22;1836202;78;21149;-62
2022/01/09 08:53:39;;;;;;;40.00;26.57;;;;;;;0.70;88.35;96877.80;1836205;78;20995;-62
2022/01/09 08:56:06;;;;;;;29.67;20.25;;;;;;;0.72;88.16;96880.97;1836298;78;20892;-59
2022/01/09 08:58:33;;;;;;;40.08;27.10;;;;;;;0.71;88.07;96883.87;1835915;77;20914;-62
2022/01/09 09:01:01;;;;;;;45.15;27.60;;;;;;;0.72;88.08;96873.06;1835454;78;21411;-59
2022/01/09 09:03:29;;;;;;;31.62;21.42;;;;;;;0.78;88.12;96873.35;1835603;78;21098;-59
2022/01/09 09:05:56;;;;;;;18.35;14.05;;;;;;;0.83;87.99;96879.97;1835388;78;20955;-63
2022/01/09 09:08:23;;;;;;;20.25;15.55;;;;;;;0.79;87.71;96867.04;1835773;78;21306;-59
2022/01/09 09:10:49;;;;;;;13.60;10.75;;;;;;;0.79;87.75;96864.41;1835413;78;20907;-59
2022/01/09 09:13:16;;;;;;;13.20;10.10;;;;;;;0.82;87.58;96861.27;1835806;78;21402;-59
2022/01/09 09:15:43;;;;;;;21.50;15.15;;;;;;;0.82;87.48;96854.68;1835589;78;21102;-62
2022/01/09 09:18:10;;;;;;;14.18;10.23;;;;;;;0.85;87.41;96862.05;1835687;78;20856;-59
2022/01/09 09:20:38;;;;;;;12.82;10.85;;;;;;;0.82;87.30;96869.17;1835560;78;20963;-62
2022/01/09 09:23:05;;;;;;;12.85;9.75;;;;;;;0.80;87.30;96869.93;1835507;78;20989;-63
2022/01/09 09:25:33;;;;;;;12.23;10.60;;;;;;;0.79;87.20;96865.72;1835402;78;20859;-63
2022/01/09 09:28:01;;;;;;;13.85;11.03;;;;;;;0.80;87.19;96863.89;1835958;78;48324;-58
2022/01/09 09:30:28;;;;;;;12.70;10.53;;;;;;;0.84;87.15;96860.48;1835506;78;20946;-61
2022/01/09 09:32:55;;;;;;;13.95;11.70;;;;;;;0.85;87.08;96868.64;1835766;78;20986;-60
2022/01/09 09:35:21;;;;;;;15.18;13.20;;;;;;;0.86;87.10;96878.67;1835555;78;20852;-62
2022/01/09 09:37:48;;;;;;;16.50;13.55;;;;;;;0.89;87.15;96872.38;1835596;78;20872;-62
2022/01/09 09:40:15;;;;;;;20.27;13.75;;;;;;;0.93;87.11;96871.33;1835568;78;21692;-57
2022/01/09 09:42:42;;;;;;;13.22;10.38;;;;;;;0.93;87.02;96874.77;1835587;78;20824;-62
2022/01/09 09:45:10;;;;;;;17.32;13.40;;;;;;;0.95;87.00;96868.71;1835723;78;21409;-61
2022/01/09 09:47:39;;;;;;;22.35;15.08;;;;;;;0.99;86.92;96872.96;1835531;78;21414;-62
2022/01/09 09:50:09;;;;;;;21.10;15.10;;;;;;;1.01;86.98;96869.02;1835578;78;21552;-64
2022/01/09 09:52:36;;;;;;;22.13;16.07;;;;;;;1.05;86.91;96870.09;1835753;78;21106;-60
2022/01/09 09:55:04;;;;;;;19.40;14.50;;;;;;;1.09;86.89;96872.47;1835604;78;21355;-60
2022/01/09 09:57:31;;;;;;;20.50;16.52;;;;;;;1.15;86.82;96868.83;1835930;78;20824;-61
2022/01/09 10:00:14;;;;;;;17.77;13.32;;;;;;;1.22;86.70;96873.34;1836144;77;20947;-62
2022/01/09 10:02:47;;;;;;;14.58;10.95;;;;;;;1.24;86.43;96869.91;1836080;78;20903;-58
2022/01/09 10:05:18;;;;;;;22.25;11.33;;;;;;;1.27;86.35;96858.05;1834696;78;21084;-59
2022/01/09 10:07:46;;;;;;;15.93;13.10;;;;;;;1.32;86.29;96859.36;1836079;78;20946;-59
2022/01/09 10:10:16;;;;;;;16.57;12.50;;;;;;;1.39;86.18;96864.67;1836014;78;20911;-58
2022/01/09 10:12:45;;;;;;;13.55;10.72;;;;;;;1.41;86.00;96867.59;1836210;78;20898;-57
2022/01/09 10:15:17;;;;;;;12.58;10.72;;;;;;;1.41;85.91;96844.65;1836138;78;20879;-58
2022/01/09 10:17:49;;;;;;;19.65;14.05;;;;;;;1.43;85.87;96844.38;1835944;78;21157;-60
2022/01/09 10:20:22;;;;;;;17.23;13.43;;;;;;;1.47;85.80;96866.55;1836269;78;21488;-60
2022/01/09 10:22:54;;;;;;;16.48;13.35;;;;;;;1.49;85.65;96859.16;1836134;78;20965;-59
2022/01/09 10:25:35;;;;;;;14.75;10.68;;;;;;;1.49;85.66;96853.36;1836376;78;20879;-59
2022/01/09 10:28:13;;;;;;;12.43;9.73;;;;;;;1.52;85.63;96850.73;1836147;78;20828;-63
2022/01/09 10:30:45;;;;;;;16.23;10.45;;;;;;;1.55;85.44;96856.82;1836133;78;21772;-61
2022/01/09 10:33:18;;;;;;;16.10;11.83;;;;;;;1.53;85.32;96866.30;1836060;78;20839;-59
2022/01/09 10:35:47;;;;;;;16.37;12.07;;;;;;;1.51;85.20;96855.77;1836108;78;21433;-58
2022/01/09 10:38:19;;;;;;;13.58;9.40;;;;;;;1.46;85.24;96849.14;1836078;78;20899;-63
2022/01/09 10:40:54;;;;;;;16.05;11.50;;;;;;;1.48;85.25;96854.95;1836351;78;20946;-58
2022/01/09 10:43:23;;;;;;;19.15;12.05;;;;;;;1.51;85.21;96847.30;1835108;78;21115;-57
2022/01/09 10:46:01;;;;;;;19.35;13.05;;;;;;;1.53;85.11;96848.38;1836056;78;21457;-63
2022/01/09 10:48:39;;;;;;;18.42;13.68;;;;;;;1.54;85.15;96843.34;1836081;78;21303;-60
2022/01/09 10:51:10;;;;;;;16.82;12.10;;;;;;;1.54;85.01;96845.98;1836114;78;20954;-59
2022/01/09 10:53:40;;;;;;;15.43;11.20;;;;;;;1.54;84.92;96844.14;1836148;78;20950;-60
2022/01/09 10:56:20;;;;;;;13.93;10.20;;;;;;;1.53;84.83;96839.14;1835990;78;22368;-59
2022/01/09 10:58:50;;;;;;;12.05;9.13;;;;;;;1.56;84.89;96847.83;1835809;77;20896;-59
2022/01/09 11:01:27;;;;;;;11.95;8.60;;;;;;;1.62;84.87;96842.84;1835538;78;20935;-65
2022/01/09 11:04:08;;;;;;;13.90;9.73;;;;;;;1.70;84.71;96843.13;1835405;77;20895;-60
2022/01/09 11:06:38;;;;;;;10.23;9.03;;;;;;;1.75;84.65;96838.37;1835802;78;20915;-65
2022/01/09 11:09:05;;;;;;;12.93;9.15;;;;;;;1.80;84.54;96835.75;1835912;78;21107;-62
2022/01/09 11:11:40;;;;;;;12.95;9.93;;;;;;;1.82;84.33;96842.88;1835630;78;20840;-64
2022/01/09 11:14:12;;;;;;;17.40;12.90;;;;;;;1.80;84.21;96841.03;1835901;78;20912;-60
2022/01/09 11:16:41;;;;;;;24.92;15.00;;;;;;;1.80;84.22;96839.70;1835927;77;21498;-64
2022/01/09 11:19:16;;;;;;;18.60;12.53;;;;;;;1.85;84.26;96843.67;1835488;78;20919;-66
2022/01/09 11:21:59;;;;;;;17.67;12.40;;;;;;;1.91;84.17;96847.90;1835694;78;21107;-59
2022/01/09 11:25:10;;;;;;;18.10;12.60;;;;;;;1.95;84.07;96843.70;1835812;78;20900;-63
2022/01/09 11:27:54;;;;;;;15.80;12.55;;;;;;;2.03;83.96;96837.87;1835685;78;20907;-63
2022/01/09 11:30:35;;;;;;;16.23;12.10;;;;;;;2.12;83.81;96834.97;1835804;78;20812;-64
2022/01/09 11:33:22;;;;;;;12.50;10.68;;;;;;;2.20;83.56;96834.45;1835697;78;20895;-58
2022/01/09 11:35:57;;;;;;;12.85;10.03;;;;;;;2.31;83.25;96837.35;1835187;78;21120;-64
2022/01/09 11:38:50;;;;;;;11.80;9.70;;;;;;;2.42;82.48;96831.02;1830818;77;20887;-61